Terminal Aerodrome Forecast
Issued by NWS

Current Version | Previous Version | Text Only | Print | Product List | Glossary On
Versions: 1 2 3 4 5 6 7 8 9 10 11 12 13 14 15 16 17 18 19 20 21 22
000
FTUS41 KGYX 210521
TAFAUG
TAF
KAUG 210521Z 2106/2206 VRB03KT P6SM OVC080
     FM211500 08007KT P6SM SHRA OVC025
     FM211800 08008KT 4SM -RA BR OVC010
     FM220500 03012KT 2SM -RA BR OVC007=

USA.gov is the U.S. government's official web portal to all federal, state and local government web resources and services.